sensor_id;sensor_type;location;lat;lon;timestamp;pressure;altitude;pressure_sealevel;temperature;humidity
62038;BME280;47991;42.974;12.082;2023-03-19T00:00:54;98098.14;;;6.97;72.01
62038;BME280;47991;42.974;12.082;2023-03-19T00:03:38;98107.77;;;7.01;72.39
62038;BME280;47991;42.974;12.082;2023-03-19T00:06:06;98104.98;;;6.99;72.75
62038;BME280;47991;42.974;12.082;2023-03-19T00:08:33;98105.17;;;6.96;72.88
62038;BME280;47991;42.974;12.082;2023-03-19T00:11:05;98111.52;;;6.94;73.21
62038;BME280;47991;42.974;12.082;2023-03-19T00:13:35;98111.02;;;6.91;73.21
62038;BME280;47991;42.974;12.082;2023-03-19T00:16:07;98108.23;;;6.88;73.26
62038;BME280;47991;42.974;12.082;2023-03-19T00:18:36;98105.20;;;6.93;73.91
62038;BME280;47991;42.974;12.082;2023-03-19T00:21:06;98101.46;;;6.98;73.53
62038;BME280;47991;42.974;12.082;2023-03-19T00:23:34;98102.31;;;7.03;74.03
62038;BME280;47991;42.974;12.082;2023-03-19T00:26:04;98103.50;;;7.07;73.65
62038;BME280;47991;42.974;12.082;2023-03-19T00:28:32;98100.66;;;7.10;74.06
62038;BME280;47991;42.974;12.082;2023-03-19T00:31:09;98096.98;;;7.09;74.98
62038;BME280;47991;42.974;12.082;2023-03-19T00:33:37;98087.83;;;7.09;75.47
62038;BME280;47991;42.974;12.082;2023-03-19T00:36:04;98082.17;;;7.12;74.56
62038;BME280;47991;42.974;12.082;2023-03-19T00:38:32;98073.13;;;7.21;74.19
62038;BME280;47991;42.974;12.082;2023-03-19T00:41:04;98056.51;;;7.29;73.67
62038;BME280;47991;42.974;12.082;2023-03-19T00:43:36;98051.14;;;7.37;74.51
62038;BME280;47991;42.974;12.082;2023-03-19T00:46:04;98046.91;;;7.38;75.11
62038;BME280;47991;42.974;12.082;2023-03-19T00:48:37;98045.65;;;7.42;75.68
62038;BME280;47991;42.974;12.082;2023-03-19T00:51:08;98042.62;;;7.44;75.25
62038;BME280;47991;42.974;12.082;2023-03-19T00:53:41;98040.89;;;7.42;76.01
62038;BME280;47991;42.974;12.082;2023-03-19T00:56:13;98043.54;;;7.42;75.05
62038;BME280;47991;42.974;12.082;2023-03-19T00:58:40;98035.45;;;7.41;75.05
62038;BME280;47991;42.974;12.082;2023-03-19T01:01:09;98035.13;;;7.38;75.22
62038;BME280;47991;42.974;12.082;2023-03-19T01:03:37;98037.94;;;7.39;75.28
62038;BME280;47991;42.974;12.082;2023-03-19T01:06:05;98039.38;;;7.36;75.95
62038;BME280;47991;42.974;12.082;2023-03-19T01:08:35;98038.61;;;7.42;77.27
62038;BME280;47991;42.974;12.082;2023-03-19T01:11:06;98040.63;;;7.50;77.67
62038;BME280;47991;42.974;12.082;2023-03-19T01:13:37;98040.94;;;7.54;77.18
62038;BME280;47991;42.974;12.082;2023-03-19T01:16:05;98045.45;;;7.58;75.91
62038;BME280;47991;42.974;12.082;2023-03-19T01:18:35;98037.13;;;7.62;75.37
62038;BME280;47991;42.974;12.082;2023-03-19T01:21:04;98036.81;;;7.60;74.88
62038;BME280;47991;42.974;12.082;2023-03-19T01:23:35;98045.88;;;7.52;75.59
62038;BME280;47991;42.974;12.082;2023-03-19T01:26:06;98047.39;;;7.43;77.49
62038;BME280;47991;42.974;12.082;2023-03-19T01:28:34;98038.83;;;7.38;75.40
62038;BME280;47991;42.974;12.082;2023-03-19T01:31:05;98042.91;;;7.35;76.07
62038;BME280;47991;42.974;12.082;2023-03-19T01:33:56;98038.40;;;7.30;76.22
62038;BME280;47991;42.974;12.082;2023-03-19T01:36:37;98033.85;;;7.27;77.51
62038;BME280;47991;42.974;12.082;2023-03-19T01:39:08;98030.36;;;7.25;78.93
62038;BME280;47991;42.974;12.082;2023-03-19T01:41:37;98028.42;;;7.25;78.79
62038;BME280;47991;42.974;12.082;2023-03-19T01:44:33;98022.58;;;7.29;77.18
62038;BME280;47991;42.974;12.082;2023-03-19T01:47:32;98026.55;;;7.34;77.56
62038;BME280;47991;42.974;12.082;2023-03-19T01:50:44;98038.31;;;7.37;78.90
62038;BME280;47991;42.974;12.082;2023-03-19T01:53:20;98038.15;;;7.36;77.66
62038;BME280;47991;42.974;12.082;2023-03-19T01:56:15;98039.85;;;7.41;77.31
62038;BME280;47991;42.974;12.082;2023-03-19T01:59:01;98037.33;;;7.46;77.16
62038;BME280;47991;42.974;12.082;2023-03-19T02:01:49;98034.63;;;7.52;77.40
62038;BME280;47991;42.974;12.082;2023-03-19T02:04:21;98032.31;;;7.53;77.58
62038;BME280;47991;42.974;12.082;2023-03-19T02:06:49;98035.69;;;7.51;76.75
62038;BME280;47991;42.974;12.082;2023-03-19T02:09:18;98038.57;;;7.44;77.39
62038;BME280;47991;42.974;12.082;2023-03-19T02:11:45;98040.77;;;7.37;77.58
62038;BME280;47991;42.974;12.082;2023-03-19T02:14:12;98044.52;;;7.33;77.49
62038;BME280;47991;42.974;12.082;2023-03-19T02:16:39;98035.41;;;7.29;77.64
62038;BME280;47991;42.974;12.082;2023-03-19T02:19:09;98033.30;;;7.28;78.38
62038;BME280;47991;42.974;12.082;2023-03-19T02:21:38;98026.44;;;7.30;77.44
62038;BME280;47991;42.974;12.082;2023-03-19T02:24:16;98020.59;;;7.33;77.44
62038;BME280;47991;42.974;12.082;2023-03-19T02:27:02;98017.08;;;7.33;77.59
62038;BME280;47991;42.974;12.082;2023-03-19T02:29:34;98020.45;;;7.31;79.03
62038;BME280;47991;42.974;12.082;2023-03-19T02:32:03;98017.51;;;7.26;78.63
62038;BME280;47991;42.974;12.082;2023-03-19T02:34:42;98018.65;;;7.34;78.13
62038;BME280;47991;42.974;12.082;2023-03-19T02:37:13;98022.60;;;7.42;79.27
62038;BME280;47991;42.974;12.082;2023-03-19T02:39:48;98021.45;;;7.34;83.23
62038;BME280;47991;42.974;12.082;2023-03-19T02:42:18;98024.85;;;7.13;82.16
62038;BME280;47991;42.974;12.082;2023-03-19T02:44:47;98025.98;;;6.88;83.66
62038;BME280;47991;42.974;12.082;2023-03-19T02:47:14;98019.15;;;6.86;82.34
62038;BME280;47991;42.974;12.082;2023-03-19T02:49:41;98022.46;;;6.87;80.63
62038;BME280;47991;42.974;12.082;2023-03-19T02:52:08;98026.66;;;6.89;80.54
62038;BME280;47991;42.974;12.082;2023-03-19T02:54:36;98027.36;;;6.90;80.51
62038;BME280;47991;42.974;12.082;2023-03-19T02:57:05;98025.23;;;6.91;79.61
62038;BME280;47991;42.974;12.082;2023-03-19T02:59:33;98029.47;;;6.91;80.06
62038;BME280;47991;42.974;12.082;2023-03-19T03:02:04;98032.29;;;6.91;79.89
62038;BME280;47991;42.974;12.082;2023-03-19T03:04:33;98035.29;;;6.89;80.07
62038;BME280;47991;42.974;12.082;2023-03-19T03:07:00;98040.92;;;6.88;79.53
62038;BME280;47991;42.974;12.082;2023-03-19T03:09:30;98042.31;;;6.89;79.70
62038;BME280;47991;42.974;12.082;2023-03-19T03:12:01;98045.30;;;6.89;79.46
62038;BME280;47991;42.974;12.082;2023-03-19T03:14:28;98044.09;;;6.87;79.70
62038;BME280;47991;42.974;12.082;2023-03-19T03:16:57;98049.72;;;6.86;79.31
62038;BME280;47991;42.974;12.082;2023-03-19T03:19:27;98050.09;;;6.85;79.53
62038;BME280;47991;42.974;12.082;2023-03-19T03:21:57;98052.05;;;6.81;80.34
62038;BME280;47991;42.974;12.082;2023-03-19T03:24:23;98049.79;;;6.78;79.39
62038;BME280;47991;42.974;12.082;2023-03-19T03:26:50;98045.11;;;6.71;79.17
62038;BME280;47991;42.974;12.082;2023-03-19T03:29:17;98046.54;;;6.68;79.08
62038;BME280;47991;42.974;12.082;2023-03-19T03:31:45;98047.11;;;6.63;79.54
62038;BME280;47991;42.974;12.082;2023-03-19T03:34:12;98046.39;;;6.64;79.66
62038;BME280;47991;42.974;12.082;2023-03-19T03:36:40;98043.20;;;6.69;80.48
62038;BME280;47991;42.974;12.082;2023-03-19T03:39:12;98044.20;;;6.76;80.63
62038;BME280;47991;42.974;12.082;2023-03-19T03:41:42;98052.80;;;6.75;80.87
62038;BME280;47991;42.974;12.082;2023-03-19T03:44:12;98050.90;;;6.72;80.69
62038;BME280;47991;42.974;12.082;2023-03-19T03:46:40;98052.08;;;6.77;81.35
62038;BME280;47991;42.974;12.082;2023-03-19T03:49:11;98058.58;;;6.79;81.41
62038;BME280;47991;42.974;12.082;2023-03-19T03:51:38;98059.16;;;6.71;83.49
62038;BME280;47991;42.974;12.082;2023-03-19T03:54:04;98059.04;;;6.66;81.19
62038;BME280;47991;42.974;12.082;2023-03-19T03:56:31;98056.42;;;6.64;80.60
62038;BME280;47991;42.974;12.082;2023-03-19T03:58:59;98055.71;;;6.64;80.23
62038;BME280;47991;42.974;12.082;2023-03-19T04:01:27;98054.31;;;6.63;80.84
62038;BME280;47991;42.974;12.082;2023-03-19T04:03:54;98048.34;;;6.63;80.63
62038;BME280;47991;42.974;12.082;2023-03-19T04:06:23;98047.80;;;6.64;81.89
62038;BME280;47991;42.974;12.082;2023-03-19T04:09:07;98048.69;;;6.65;81.06
62038;BME280;47991;42.974;12.082;2023-03-19T04:11:35;98051.13;;;6.67;80.61
62038;BME280;47991;42.974;12.082;2023-03-19T04:14:02;98052.38;;;6.65;81.78
62038;BME280;47991;42.974;12.082;2023-03-19T04:16:34;98055.67;;;6.69;82.16
62038;BME280;47991;42.974;12.082;2023-03-19T04:19:01;98060.92;;;6.72;82.44
62038;BME280;47991;42.974;12.082;2023-03-19T04:21:31;98057.35;;;6.78;81.40
62038;BME280;47991;42.974;12.082;2023-03-19T04:24:01;98056.41;;;6.87;80.99
62038;BME280;47991;42.974;12.082;2023-03-19T04:26:30;98059.33;;;6.93;80.89
62038;BME280;47991;42.974;12.082;2023-03-19T04:28:58;98063.16;;;6.98;81.20
62038;BME280;47991;42.974;12.082;2023-03-19T04:31:28;98063.79;;;7.06;81.15
62038;BME280;47991;42.974;12.082;2023-03-19T04:34:01;98060.72;;;7.14;81.07
62038;BME280;47991;42.974;12.082;2023-03-19T04:36:30;98061.44;;;7.12;81.98
62038;BME280;47991;42.974;12.082;2023-03-19T04:38:57;98064.28;;;7.08;81.09
62038;BME280;47991;42.974;12.082;2023-03-19T04:41:24;98060.56;;;7.11;82.45
62038;BME280;47991;42.974;12.082;2023-03-19T04:44:00;98061.16;;;7.04;85.01
62038;BME280;47991;42.974;12.082;2023-03-19T04:46:28;98060.55;;;6.96;84.67
62038;BME280;47991;42.974;12.082;2023-03-19T04:48:57;98060.13;;;6.83;86.21
62038;BME280;47991;42.974;12.082;2023-03-19T04:51:28;98058.36;;;6.84;84.19
62038;BME280;47991;42.974;12.082;2023-03-19T04:53:58;98055.14;;;6.90;83.12
62038;BME280;47991;42.974;12.082;2023-03-19T04:56:25;98056.00;;;6.92;82.65
62038;BME280;47991;42.974;12.082;2023-03-19T04:58:54;98048.59;;;6.95;82.33
62038;BME280;47991;42.974;12.082;2023-03-19T05:01:25;98049.64;;;6.95;86.03
62038;BME280;47991;42.974;12.082;2023-03-19T05:04:07;98046.61;;;6.80;85.79
62038;BME280;47991;42.974;12.082;2023-03-19T05:06:36;98044.57;;;6.73;84.29
62038;BME280;47991;42.974;12.082;2023-03-19T05:09:06;98045.78;;;6.76;86.16
62038;BME280;47991;42.974;12.082;2023-03-19T05:11:45;98048.41;;;6.77;86.59
62038;BME280;47991;42.974;12.082;2023-03-19T05:14:16;98043.66;;;6.77;85.20
62038;BME280;47991;42.974;12.082;2023-03-19T05:17:06;98046.27;;;6.79;85.69
62038;BME280;47991;42.974;12.082;2023-03-19T05:19:47;98048.63;;;6.71;85.76
62038;BME280;47991;42.974;12.082;2023-03-19T05:22:14;98051.60;;;6.73;84.28
62038;BME280;47991;42.974;12.082;2023-03-19T05:24:44;98059.48;;;6.76;83.74
62038;BME280;47991;42.974;12.082;2023-03-19T05:27:12;98059.66;;;6.74;83.95
62038;BME280;47991;42.974;12.082;2023-03-19T05:29:55;98066.13;;;6.79;83.70
62038;BME280;47991;42.974;12.082;2023-03-19T05:32:38;98068.87;;;6.87;83.16
62038;BME280;47991;42.974;12.082;2023-03-19T05:35:10;98066.17;;;6.94;82.56
62038;BME280;47991;42.974;12.082;2023-03-19T05:37:42;98064.37;;;6.99;82.59
62038;BME280;47991;42.974;12.082;2023-03-19T05:40:10;98065.19;;;7.05;82.61
62038;BME280;47991;42.974;12.082;2023-03-19T05:42:39;98065.84;;;7.11;82.63
62038;BME280;47991;42.974;12.082;2023-03-19T05:45:06;98067.38;;;7.16;82.45
62038;BME280;47991;42.974;12.082;2023-03-19T05:47:46;98068.73;;;7.21;83.23
62038;BME280;47991;42.974;12.082;2023-03-19T05:50:15;98071.02;;;7.20;84.43
62038;BME280;47991;42.974;12.082;2023-03-19T05:52:51;98071.21;;;7.19;84.52
62038;BME280;47991;42.974;12.082;2023-03-19T05:55:19;98071.73;;;7.19;83.69
62038;BME280;47991;42.974;12.082;2023-03-19T05:57:51;98076.27;;;7.22;84.24
62038;BME280;47991;42.974;12.082;2023-03-19T06:00:24;98077.67;;;7.24;83.76
62038;BME280;47991;42.974;12.082;2023-03-19T06:02:52;98083.42;;;7.28;82.95
62038;BME280;47991;42.974;12.082;2023-03-19T06:05:39;98083.04;;;7.33;83.51
62038;BME280;47991;42.974;12.082;2023-03-19T06:08:32;98087.45;;;7.31;85.55
62038;BME280;47991;42.974;12.082;2023-03-19T06:11:22;98092.17;;;7.33;84.67
62038;BME280;47991;42.974;12.082;2023-03-19T06:13:57;98093.71;;;7.37;84.62
62038;BME280;47991;42.974;12.082;2023-03-19T06:16:24;98099.17;;;7.37;85.21
62038;BME280;47991;42.974;12.082;2023-03-19T06:18:54;98099.90;;;7.35;84.38
62038;BME280;47991;42.974;12.082;2023-03-19T06:21:23;98102.15;;;7.38;83.98
62038;BME280;47991;42.974;12.082;2023-03-19T06:23:56;98101.74;;;7.44;83.31
62038;BME280;47991;42.974;12.082;2023-03-19T06:26:28;98112.06;;;7.49;83.24
62038;BME280;47991;42.974;12.082;2023-03-19T06:28:57;98115.89;;;7.54;83.19
62038;BME280;47991;42.974;12.082;2023-03-19T06:31:24;98115.69;;;7.55;83.00
62038;BME280;47991;42.974;12.082;2023-03-19T06:33:54;98122.16;;;7.59;83.25
62038;BME280;47991;42.974;12.082;2023-03-19T06:36:23;98121.77;;;7.63;82.77
62038;BME280;47991;42.974;12.082;2023-03-19T06:38:55;98129.29;;;7.66;82.89
62038;BME280;47991;42.974;12.082;2023-03-19T06:41:27;98132.77;;;7.71;82.51
62038;BME280;47991;42.974;12.082;2023-03-19T06:44:00;98137.83;;;7.75;82.42
62038;BME280;47991;42.974;12.082;2023-03-19T06:46:27;98138.48;;;7.78;82.32
62038;BME280;47991;42.974;12.082;2023-03-19T06:48:56;98137.92;;;7.81;82.36
62038;BME280;47991;42.974;12.082;2023-03-19T06:51:23;98134.36;;;7.85;82.26
62038;BME280;47991;42.974;12.082;2023-03-19T06:53:58;98135.73;;;7.89;81.85
62038;BME280;47991;42.974;12.082;2023-03-19T06:56:25;98140.09;;;7.92;81.88
62038;BME280;47991;42.974;12.082;2023-03-19T06:58:54;98142.01;;;7.95;82.47
62038;BME280;47991;42.974;12.082;2023-03-19T07:01:23;98146.77;;;7.94;82.95
62038;BME280;47991;42.974;12.082;2023-03-19T07:03:54;98151.35;;;7.94;82.90
62038;BME280;47991;42.974;12.082;2023-03-19T07:06:25;98155.15;;;7.99;81.84
62038;BME280;47991;42.974;12.082;2023-03-19T07:08:54;98155.11;;;8.04;82.39
62038;BME280;47991;42.974;12.082;2023-03-19T07:11:24;98158.54;;;8.10;82.09
62038;BME280;47991;42.974;12.082;2023-03-19T07:13:56;98160.71;;;8.19;82.45
62038;BME280;47991;42.974;12.082;2023-03-19T07:16:24;98160.28;;;8.27;82.17
62038;BME280;47991;42.974;12.082;2023-03-19T07:18:52;98161.21;;;8.36;82.05
62038;BME280;47991;42.974;12.082;2023-03-19T07:21:19;98160.94;;;8.45;81.96
62038;BME280;47991;42.974;12.082;2023-03-19T07:23:49;98158.36;;;8.53;82.19
62038;BME280;47991;42.974;12.082;2023-03-19T07:26:16;98156.46;;;8.64;82.30
62038;BME280;47991;42.974;12.082;2023-03-19T07:28:44;98153.64;;;8.75;81.59
62038;BME280;47991;42.974;12.082;2023-03-19T07:31:16;98157.03;;;8.85;81.70
62038;BME280;47991;42.974;12.082;2023-03-19T07:33:44;98158.73;;;8.89;82.43
62038;BME280;47991;42.974;12.082;2023-03-19T07:36:14;98159.75;;;8.91;82.38
62038;BME280;47991;42.974;12.082;2023-03-19T07:38:42;98161.52;;;8.91;82.87
62038;BME280;47991;42.974;12.082;2023-03-19T07:41:09;98161.27;;;8.95;82.49
62038;BME280;47991;42.974;12.082;2023-03-19T07:43:36;98166.77;;;9.05;82.07
62038;BME280;47991;42.974;12.082;2023-03-19T07:46:04;98173.14;;;9.14;81.47
62038;BME280;47991;42.974;12.082;2023-03-19T07:48:32;98178.48;;;9.22;81.70
62038;BME280;47991;42.974;12.082;2023-03-19T07:50:59;98173.73;;;9.21;83.02
62038;BME280;47991;42.974;12.082;2023-03-19T07:53:26;98169.36;;;9.20;82.81
62038;BME280;47991;42.974;12.082;2023-03-19T07:55:56;98166.27;;;9.14;83.84
62038;BME280;47991;42.974;12.082;2023-03-19T07:58:27;98164.26;;;9.18;83.29
62038;BME280;47991;42.974;12.082;2023-03-19T08:00:55;98166.36;;;9.19;82.92
62038;BME280;47991;42.974;12.082;2023-03-19T08:03:22;98168.48;;;9.30;82.88
62038;BME280;47991;42.974;12.082;2023-03-19T08:05:49;98173.14;;;9.36;82.41
62038;BME280;47991;42.974;12.082;2023-03-19T08:08:16;98168.59;;;9.34;82.52
62038;BME280;47991;42.974;12.082;2023-03-19T08:10:45;98170.73;;;9.32;82.52
62038;BME280;47991;42.974;12.082;2023-03-19T08:13:13;98171.14;;;9.40;82.26
62038;BME280;47991;42.974;12.082;2023-03-19T08:15:40;98172.98;;;9.45;81.84
62038;BME280;47991;42.974;12.082;2023-03-19T08:18:07;98173.71;;;9.54;81.48
62038;BME280;47991;42.974;12.082;2023-03-19T08:20:37;98177.66;;;9.60;81.35
62038;BME280;47991;42.974;12.082;2023-03-19T08:23:06;98177.39;;;9.75;81.03
62038;BME280;47991;42.974;12.082;2023-03-19T08:25:37;98182.08;;;9.89;80.76
62038;BME280;47991;42.974;12.082;2023-03-19T08:28:07;98177.81;;;10.00;80.76
62038;BME280;47991;42.974;12.082;2023-03-19T08:30:36;98178.66;;;10.11;80.67
62038;BME280;47991;42.974;12.082;2023-03-19T08:33:03;98177.54;;;10.23;80.08
62038;BME280;47991;42.974;12.082;2023-03-19T08:35:33;98177.41;;;10.29;80.09
62038;BME280;47991;42.974;12.082;2023-03-19T08:38:00;98179.46;;;10.34;80.84
62038;BME280;47991;42.974;12.082;2023-03-19T08:40:27;98179.87;;;10.40;80.89
62038;BME280;47991;42.974;12.082;2023-03-19T08:42:58;98183.42;;;10.39;80.19
62038;BME280;47991;42.974;12.082;2023-03-19T08:45:29;98186.33;;;10.34;80.15
62038;BME280;47991;42.974;12.082;2023-03-19T08:47:56;98194.48;;;10.33;80.10
62038;BME280;47991;42.974;12.082;2023-03-19T08:50:29;98197.20;;;10.29;79.91
62038;BME280;47991;42.974;12.082;2023-03-19T08:52:56;98196.63;;;10.14;80.87
62038;BME280;47991;42.974;12.082;2023-03-19T08:55:29;98194.08;;;10.08;80.62
62038;BME280;47991;42.974;12.082;2023-03-19T08:57:58;98191.04;;;10.19;80.14
62038;BME280;47991;42.974;12.082;2023-03-19T09:00:28;98193.48;;;10.29;80.80
62038;BME280;47991;42.974;12.082;2023-03-19T09:02:58;98191.08;;;10.36;81.03
62038;BME280;47991;42.974;12.082;2023-03-19T09:05:25;98189.57;;;10.41;80.64
62038;BME280;47991;42.974;12.082;2023-03-19T09:07:58;98197.08;;;10.44;80.54
62038;BME280;47991;42.974;12.082;2023-03-19T09:10:25;98199.28;;;10.50;79.33
62038;BME280;47991;42.974;12.082;2023-03-19T09:12:53;98199.96;;;10.51;80.29
62038;BME280;47991;42.974;12.082;2023-03-19T09:15:20;98200.40;;;10.55;79.43
62038;BME280;47991;42.974;12.082;2023-03-19T09:17:47;98204.12;;;10.63;79.38
62038;BME280;47991;42.974;12.082;2023-03-19T09:20:14;98211.69;;;10.64;79.27
62038;BME280;47991;42.974;12.082;2023-03-19T09:22:41;98204.65;;;10.72;79.45
62038;BME280;47991;42.974;12.082;2023-03-19T09:25:13;98204.14;;;10.79;79.18
62038;BME280;47991;42.974;12.082;2023-03-19T09:27:46;98202.15;;;10.96;79.41
62038;BME280;47991;42.974;12.082;2023-03-19T09:30:14;98204.09;;;11.11;78.29
62038;BME280;47991;42.974;12.082;2023-03-19T09:32:41;98204.99;;;11.26;76.92
62038;BME280;47991;42.974;12.082;2023-03-19T09:35:10;98210.07;;;11.36;76.07
62038;BME280;47991;42.974;12.082;2023-03-19T09:37:37;98208.76;;;11.32;75.56
62038;BME280;47991;42.974;12.082;2023-03-19T09:40:05;98213.36;;;11.39;75.83
62038;BME280;47991;42.974;12.082;2023-03-19T09:42:57;98206.61;;;11.46;75.76
62038;BME280;47991;42.974;12.082;2023-03-19T09:45:27;98208.89;;;11.47;74.92
62038;BME280;47991;42.974;12.082;2023-03-19T09:48:00;98211.25;;;11.45;74.30
62038;BME280;47991;42.974;12.082;2023-03-19T09:50:33;98210.86;;;11.47;74.08
62038;BME280;47991;42.974;12.082;2023-03-19T09:53:12;98211.42;;;11.52;74.63
62038;BME280;47991;42.974;12.082;2023-03-19T09:55:46;98212.35;;;11.51;73.66
62038;BME280;47991;42.974;12.082;2023-03-19T09:58:19;98205.23;;;11.53;72.79
62038;BME280;47991;42.974;12.082;2023-03-19T10:00:54;98202.30;;;11.56;72.89
62038;BME280;47991;42.974;12.082;2023-03-19T10:14:28;98194.09;;;11.66;72.28
62038;BME280;47991;42.974;12.082;2023-03-19T10:17:15;98193.09;;;11.71;71.73
62038;BME280;47991;42.974;12.082;2023-03-19T10:19:47;98188.56;;;11.73;71.54
62038;BME280;47991;42.974;12.082;2023-03-19T10:22:31;98186.91;;;11.75;71.66
62038;BME280;47991;42.974;12.082;2023-03-19T10:25:02;98184.90;;;11.85;71.51
62038;BME280;47991;42.974;12.082;2023-03-19T10:27:29;98180.91;;;11.89;71.34
62038;BME280;47991;42.974;12.082;2023-03-19T10:29:59;98182.14;;;11.96;71.14
62038;BME280;47991;42.974;12.082;2023-03-19T10:32:43;98179.27;;;12.05;71.46
62038;BME280;47991;42.974;12.082;2023-03-19T10:35:21;98168.96;;;12.18;70.95
62038;BME280;47991;42.974;12.082;2023-03-19T10:37:52;98166.96;;;12.32;70.14
62038;BME280;47991;42.974;12.082;2023-03-19T10:40:25;98168.80;;;12.36;69.45
62038;BME280;47991;42.974;12.082;2023-03-19T10:43:13;98169.47;;;12.44;69.67
62038;BME280;47991;42.974;12.082;2023-03-19T10:45:43;98168.52;;;12.33;70.84
62038;BME280;47991;42.974;12.082;2023-03-19T10:48:14;98170.61;;;12.23;70.78
62038;BME280;47991;42.974;12.082;2023-03-19T10:50:58;98166.98;;;12.19;70.12
62038;BME280;47991;42.974;12.082;2023-03-19T10:53:38;98167.70;;;12.25;70.73
62038;BME280;47991;42.974;12.082;2023-03-19T10:56:24;98163.06;;;12.32;70.20
62038;BME280;47991;42.974;12.082;2023-03-19T10:58:59;98162.70;;;12.32;69.46
62038;BME280;47991;42.974;12.082;2023-03-19T11:01:34;98161.63;;;12.33;70.01
62038;BME280;47991;42.974;12.082;2023-03-19T11:04:19;98158.77;;;12.33;69.57
62038;BME280;47991;42.974;12.082;2023-03-19T11:06:49;98154.32;;;12.34;69.65
62038;BME280;47991;42.974;12.082;2023-03-19T11:12:27;98147.67;;;12.37;69.21
62038;BME280;47991;42.974;12.082;2023-03-19T11:14:53;98145.30;;;12.40;69.43
62038;BME280;47991;42.974;12.082;2023-03-19T11:19:52;98134.71;;;12.38;69.27
62038;BME280;47991;42.974;12.082;2023-03-19T11:22:24;98130.52;;;12.41;69.16
62038;BME280;47991;42.974;12.082;2023-03-19T11:24:59;98130.34;;;12.53;69.16
62038;BME280;47991;42.974;12.082;2023-03-19T11:27:32;98135.33;;;12.59;68.88
62038;BME280;47991;42.974;12.082;2023-03-19T11:30:12;98142.40;;;12.59;68.87
62038;BME280;47991;42.974;12.082;2023-03-19T11:35:30;98137.63;;;12.53;68.84
62038;BME280;47991;42.974;12.082;2023-03-19T11:38:00;98132.02;;;12.51;69.03
62038;BME280;47991;42.974;12.082;2023-03-19T11:40:42;98129.00;;;12.51;68.96
62038;BME280;47991;42.974;12.082;2023-03-19T11:51:56;98122.74;;;12.47;69.07
62038;BME280;47991;42.974;12.082;2023-03-19T11:57:53;98122.36;;;12.42;68.83
62038;BME280;47991;42.974;12.082;2023-03-19T12:00:45;98124.98;;;12.37;68.85
62038;BME280;47991;42.974;12.082;2023-03-19T12:11:48;98128.75;;;12.30;68.79
62038;BME280;47991;42.974;12.082;2023-03-19T12:26:08;98128.28;;;12.09;71.40
62038;BME280;47991;42.974;12.082;2023-03-19T12:28:48;98128.06;;;12.10;71.39
62038;BME280;47991;42.974;12.082;2023-03-19T12:31:31;98129.00;;;12.09;72.13
62038;BME280;47991;42.974;12.082;2023-03-19T12:37:41;98117.63;;;12.16;72.53
62038;BME280;47991;42.974;12.082;2023-03-19T12:40:00;98110.37;;;12.16;73.14
62038;BME280;47991;42.974;12.082;2023-03-19T12:42:39;98108.12;;;12.26;72.51
62038;BME280;47991;42.974;12.082;2023-03-19T12:47:46;98098.70;;;12.38;72.47
62038;BME280;47991;42.974;12.082;2023-03-19T12:50:21;98099.93;;;12.39;72.33
62038;BME280;47991;42.974;12.082;2023-03-19T12:52:54;98094.55;;;12.53;72.12
62038;BME280;47991;42.974;12.082;2023-03-19T13:01:06;98104.00;;;12.90;71.60
62038;BME280;47991;42.974;12.082;2023-03-19T13:04:09;98099.72;;;12.97;70.36
62038;BME280;47991;42.974;12.082;2023-03-19T13:09:28;98097.19;;;13.09;69.51
62038;BME280;47991;42.974;12.082;2023-03-19T13:12:00;98100.77;;;13.08;69.41
62038;BME280;47991;42.974;12.082;2023-03-19T13:14:47;98102.33;;;13.04;69.24
62038;BME280;47991;42.974;12.082;2023-03-19T13:17:22;98097.30;;;12.95;69.56
62038;BME280;47991;42.974;12.082;2023-03-19T13:19:57;98098.41;;;12.93;69.56
62038;BME280;47991;42.974;12.082;2023-03-19T13:22:35;98100.20;;;12.87;69.76
62038;BME280;47991;42.974;12.082;2023-03-19T13:25:14;98098.58;;;12.88;69.71
62038;BME280;47991;42.974;12.082;2023-03-19T13:27:51;98097.77;;;12.85;69.65
62038;BME280;47991;42.974;12.082;2023-03-19T13:30:21;98099.39;;;12.79;69.97
62038;BME280;47991;42.974;12.082;2023-03-19T13:33:12;98098.74;;;12.71;70.29
62038;BME280;47991;42.974;12.082;2023-03-19T13:35:54;98096.41;;;12.67;70.92
62038;BME280;47991;42.974;12.082;2023-03-19T13:38:24;98095.76;;;12.70;70.93
62038;BME280;47991;42.974;12.082;2023-03-19T13:40:56;98097.05;;;12.75;71.08
62038;BME280;47991;42.974;12.082;2023-03-19T13:48:49;98097.41;;;12.85;70.48
62038;BME280;47991;42.974;12.082;2023-03-19T13:54:14;98094.23;;;13.02;70.88
62038;BME280;47991;42.974;12.082;2023-03-19T13:59:42;98087.16;;;13.27;70.67
62038;BME280;47991;42.974;12.082;2023-03-19T14:04:54;98089.42;;;13.50;69.86
62038;BME280;47991;42.974;12.082;2023-03-19T14:07:27;98088.52;;;13.56;69.98
62038;BME280;47991;42.974;12.082;2023-03-19T14:12:39;98083.02;;;13.75;70.12
62038;BME280;47991;42.974;12.082;2023-03-19T14:25:58;98069.27;;;14.02;69.06
62038;BME280;47991;42.974;12.082;2023-03-19T14:33:58;98051.66;;;14.71;67.89
62038;BME280;47991;42.974;12.082;2023-03-19T14:36:35;98049.48;;;14.68;66.98
62038;BME280;47991;42.974;12.082;2023-03-19T14:39:23;98044.90;;;14.57;66.39
62038;BME280;47991;42.974;12.082;2023-03-19T14:42:05;98044.55;;;14.43;66.78
62038;BME280;47991;42.974;12.082;2023-03-19T14:48:08;98040.29;;;14.15;67.42
62038;BME280;47991;42.974;12.082;2023-03-19T14:56:15;98038.96;;;14.09;68.40
62038;BME280;47991;42.974;12.082;2023-03-19T14:58:50;98038.36;;;14.10;68.49
62038;BME280;47991;42.974;12.082;2023-03-19T15:01:23;98039.86;;;14.17;68.31
62038;BME280;47991;42.974;12.082;2023-03-19T15:04:07;98038.45;;;14.03;68.28
62038;BME280;47991;42.974;12.082;2023-03-19T15:06:41;98038.19;;;13.81;68.92
62038;BME280;47991;42.974;12.082;2023-03-19T15:09:17;98036.11;;;13.85;68.93
62038;BME280;47991;42.974;12.082;2023-03-19T15:17:43;98029.77;;;13.59;69.67